sensor_id;sensor_type;location;lat;lon;timestamp;P1;durP1;ratioP1;P2;durP2;ratioP2
11313;SDS011;5712;48.858;9.206;2023-08-24T00:01:39;8.30;;;7.50;;
11313;SDS011;5712;48.858;9.206;2023-08-24T00:04:06;8.47;;;7.77;;
11313;SDS011;5712;48.858;9.206;2023-08-24T00:06:34;8.37;;;7.57;;
11313;SDS011;5712;48.858;9.206;2023-08-24T00:09:01;8.20;;;7.50;;
11313;SDS011;5712;48.858;9.206;2023-08-24T00:11:30;9.67;;;8.07;;
11313;SDS011;5712;48.858;9.206;2023-08-24T00:13:56;8.80;;;7.90;;
11313;SDS011;5712;48.858;9.206;2023-08-24T00:16:23;8.43;;;7.63;;
11313;SDS011;5712;48.858;9.206;2023-08-24T00:18:49;8.00;;;7.20;;
11313;SDS011;5712;48.858;9.206;2023-08-24T00:21:16;8.73;;;7.93;;
11313;SDS011;5712;48.858;9.206;2023-08-24T00:23:43;8.90;;;7.67;;
11313;SDS011;5712;48.858;9.206;2023-08-24T00:26:10;8.63;;;7.73;;
11313;SDS011;5712;48.858;9.206;2023-08-24T00:28:36;8.80;;;8.00;;
11313;SDS011;5712;48.858;9.206;2023-08-24T00:31:03;8.77;;;7.97;;
11313;SDS011;5712;48.858;9.206;2023-08-24T00:33:29;8.53;;;7.63;;
11313;SDS011;5712;48.858;9.206;2023-08-24T00:35:58;8.23;;;7.43;;
11313;SDS011;5712;48.858;9.206;2023-08-24T00:38:25;9.90;;;8.37;;
11313;SDS011;5712;48.858;9.206;2023-08-24T00:40:53;8.80;;;7.47;;
11313;SDS011;5712;48.858;9.206;2023-08-24T00:43:20;8.93;;;7.50;;
11313;SDS011;5712;48.858;9.206;2023-08-24T00:45:49;9.07;;;8.27;;
11313;SDS011;5712;48.858;9.206;2023-08-24T00:48:16;8.90;;;7.50;;
11313;SDS011;5712;48.858;9.206;2023-08-24T00:50:43;8.43;;;7.60;;
11313;SDS011;5712;48.858;9.206;2023-08-24T00:53:09;9.30;;;8.50;;
11313;SDS011;5712;48.858;9.206;2023-08-24T00:55:36;9.20;;;8.30;;
11313;SDS011;5712;48.858;9.206;2023-08-24T00:58:04;8.37;;;7.57;;
11313;SDS011;5712;48.858;9.206;2023-08-24T01:00:31;8.87;;;7.97;;
11313;SDS011;5712;48.858;9.206;2023-08-24T01:02:58;9.30;;;7.80;;
11313;SDS011;5712;48.858;9.206;2023-08-24T01:05:24;9.10;;;8.23;;
11313;SDS011;5712;48.858;9.206;2023-08-24T01:07:51;9.47;;;8.57;;
11313;SDS011;5712;48.858;9.206;2023-08-24T01:10:17;8.97;;;8.07;;
11313;SDS011;5712;48.858;9.206;2023-08-24T01:12:49;8.93;;;7.93;;
11313;SDS011;5712;48.858;9.206;2023-08-24T01:15:29;9.37;;;8.33;;
11313;SDS011;5712;48.858;9.206;2023-08-24T01:18:04;9.03;;;8.23;;
11313;SDS011;5712;48.858;9.206;2023-08-24T01:20:40;9.13;;;8.33;;
11313;SDS011;5712;48.858;9.206;2023-08-24T01:23:14;9.00;;;8.20;;
11313;SDS011;5712;48.858;9.206;2023-08-24T01:25:51;8.63;;;7.83;;
11313;SDS011;5712;48.858;9.206;2023-08-24T01:28:20;9.10;;;8.30;;
11313;SDS011;5712;48.858;9.206;2023-08-24T01:30:47;9.93;;;8.37;;
11313;SDS011;5712;48.858;9.206;2023-08-24T01:33:14;11.00;;;8.93;;
11313;SDS011;5712;48.858;9.206;2023-08-24T01:35:41;8.97;;;8.07;;
11313;SDS011;5712;48.858;9.206;2023-08-24T01:38:07;9.10;;;8.20;;
11313;SDS011;5712;48.858;9.206;2023-08-24T01:40:39;9.70;;;8.70;;
11313;SDS011;5712;48.858;9.206;2023-08-24T01:43:14;9.03;;;8.13;;
11313;SDS011;5712;48.858;9.206;2023-08-24T01:45:44;9.23;;;8.33;;
11313;SDS011;5712;48.858;9.206;2023-08-24T01:48:12;9.40;;;8.50;;
11313;SDS011;5712;48.858;9.206;2023-08-24T01:50:39;8.97;;;8.13;;
11313;SDS011;5712;48.858;9.206;2023-08-24T01:53:07;9.53;;;8.37;;
11313;SDS011;5712;48.858;9.206;2023-08-24T01:55:34;9.70;;;8.70;;
11313;SDS011;5712;48.858;9.206;2023-08-24T01:58:00;9.90;;;8.90;;
11313;SDS011;5712;48.858;9.206;2023-08-24T02:00:27;9.23;;;8.33;;
11313;SDS011;5712;48.858;9.206;2023-08-24T02:02:55;9.37;;;8.37;;
11313;SDS011;5712;48.858;9.206;2023-08-24T02:05:22;9.40;;;8.50;;
11313;SDS011;5712;48.858;9.206;2023-08-24T02:07:52;9.33;;;8.37;;
11313;SDS011;5712;48.858;9.206;2023-08-24T02:10:19;9.93;;;8.93;;
11313;SDS011;5712;48.858;9.206;2023-08-24T02:12:45;9.50;;;8.57;;
11313;SDS011;5712;48.858;9.206;2023-08-24T02:15:12;9.00;;;8.10;;
11313;SDS011;5712;48.858;9.206;2023-08-24T02:17:38;9.83;;;8.30;;
11313;SDS011;5712;48.858;9.206;2023-08-24T02:20:07;9.33;;;8.43;;
11313;SDS011;5712;48.858;9.206;2023-08-24T02:22:34;9.43;;;8.47;;
11313;SDS011;5712;48.858;9.206;2023-08-24T02:25:01;10.33;;;8.60;;
11313;SDS011;5712;48.858;9.206;2023-08-24T02:27:28;9.37;;;8.40;;
11313;SDS011;5712;48.858;9.206;2023-08-24T02:29:54;9.90;;;8.97;;
11313;SDS011;5712;48.858;9.206;2023-08-24T02:32:21;9.50;;;8.50;;
11313;SDS011;5712;48.858;9.206;2023-08-24T02:34:47;10.33;;;9.27;;
11313;SDS011;5712;48.858;9.206;2023-08-24T02:37:15;10.73;;;9.27;;
11313;SDS011;5712;48.858;9.206;2023-08-24T02:39:41;10.43;;;9.17;;
11313;SDS011;5712;48.858;9.206;2023-08-24T02:42:08;10.43;;;9.40;;
11313;SDS011;5712;48.858;9.206;2023-08-24T02:44:35;9.47;;;8.57;;
11313;SDS011;5712;48.858;9.206;2023-08-24T02:47:01;9.80;;;8.90;;
11313;SDS011;5712;48.858;9.206;2023-08-24T02:49:28;9.87;;;8.87;;
11313;SDS011;5712;48.858;9.206;2023-08-24T02:51:54;10.23;;;9.23;;
11313;SDS011;5712;48.858;9.206;2023-08-24T02:54:22;8.83;;;8.03;;
11313;SDS011;5712;48.858;9.206;2023-08-24T02:56:48;10.23;;;8.53;;
11313;SDS011;5712;48.858;9.206;2023-08-24T02:59:15;9.00;;;8.20;;
11313;SDS011;5712;48.858;9.206;2023-08-24T03:01:41;10.13;;;8.40;;
11313;SDS011;5712;48.858;9.206;2023-08-24T03:04:08;9.10;;;8.20;;
11313;SDS011;5712;48.858;9.206;2023-08-24T03:06:34;9.40;;;8.50;;
11313;SDS011;5712;48.858;9.206;2023-08-24T03:09:01;11.57;;;8.53;;
11313;SDS011;5712;48.858;9.206;2023-08-24T03:11:30;9.33;;;8.40;;
11313;SDS011;5712;48.858;9.206;2023-08-24T03:13:57;9.43;;;8.53;;
11313;SDS011;5712;48.858;9.206;2023-08-24T03:16:23;11.03;;;9.47;;
11313;SDS011;5712;48.858;9.206;2023-08-24T03:18:50;9.80;;;8.90;;
11313;SDS011;5712;48.858;9.206;2023-08-24T03:21:16;10.20;;;8.73;;
11313;SDS011;5712;48.858;9.206;2023-08-24T03:23:42;9.47;;;8.47;;
11313;SDS011;5712;48.858;9.206;2023-08-24T03:26:09;9.53;;;8.57;;
11313;SDS011;5712;48.858;9.206;2023-08-24T03:28:37;10.43;;;8.57;;
11313;SDS011;5712;48.858;9.206;2023-08-24T03:31:03;11.70;;;9.07;;
11313;SDS011;5712;48.858;9.206;2023-08-24T03:33:32;10.47;;;9.07;;
11313;SDS011;5712;48.858;9.206;2023-08-24T03:35:59;10.53;;;8.90;;
11313;SDS011;5712;48.858;9.206;2023-08-24T03:38:26;9.60;;;8.60;;
11313;SDS011;5712;48.858;9.206;2023-08-24T03:40:59;9.47;;;8.43;;
11313;SDS011;5712;48.858;9.206;2023-08-24T03:43:26;9.13;;;8.33;;
11313;SDS011;5712;48.858;9.206;2023-08-24T03:45:53;9.47;;;8.57;;
11313;SDS011;5712;48.858;9.206;2023-08-24T03:48:20;9.40;;;8.50;;
11313;SDS011;5712;48.858;9.206;2023-08-24T03:50:46;9.43;;;8.53;;
11313;SDS011;5712;48.858;9.206;2023-08-24T03:53:13;9.37;;;8.47;;
11313;SDS011;5712;48.858;9.206;2023-08-24T03:55:39;9.57;;;8.57;;
11313;SDS011;5712;48.858;9.206;2023-08-24T03:58:06;10.00;;;9.00;;
11313;SDS011;5712;48.858;9.206;2023-08-24T04:00:33;9.53;;;8.67;;
11313;SDS011;5712;48.858;9.206;2023-08-24T04:03:00;9.77;;;8.83;;
11313;SDS011;5712;48.858;9.206;2023-08-24T04:05:27;10.03;;;8.80;;
11313;SDS011;5712;48.858;9.206;2023-08-24T04:07:53;11.77;;;9.90;;
11313;SDS011;5712;48.858;9.206;2023-08-24T04:10:20;11.60;;;10.50;;
11313;SDS011;5712;48.858;9.206;2023-08-24T04:12:46;11.27;;;10.17;;
11313;SDS011;5712;48.858;9.206;2023-08-24T04:15:13;11.43;;;10.13;;
11313;SDS011;5712;48.858;9.206;2023-08-24T04:17:39;10.77;;;9.77;;
11313;SDS011;5712;48.858;9.206;2023-08-24T04:20:08;11.37;;;9.00;;
11313;SDS011;5712;48.858;9.206;2023-08-24T04:22:35;10.57;;;9.57;;
11313;SDS011;5712;48.858;9.206;2023-08-24T04:25:02;10.80;;;9.73;;
11313;SDS011;5712;48.858;9.206;2023-08-24T04:27:29;10.47;;;9.47;;
11313;SDS011;5712;48.858;9.206;2023-08-24T04:29:56;11.53;;;10.23;;
11313;SDS011;5712;48.858;9.206;2023-08-24T04:32:22;9.70;;;8.70;;
11313;SDS011;5712;48.858;9.206;2023-08-24T04:34:49;9.43;;;8.53;;
11313;SDS011;5712;48.858;9.206;2023-08-24T04:37:17;9.63;;;8.73;;
11313;SDS011;5712;48.858;9.206;2023-08-24T04:39:43;9.57;;;8.77;;
11313;SDS011;5712;48.858;9.206;2023-08-24T04:42:09;9.00;;;8.13;;
11313;SDS011;5712;48.858;9.206;2023-08-24T04:44:36;9.13;;;8.33;;
11313;SDS011;5712;48.858;9.206;2023-08-24T04:47:02;9.33;;;8.33;;
11313;SDS011;5712;48.858;9.206;2023-08-24T04:49:29;9.43;;;8.53;;
11313;SDS011;5712;48.858;9.206;2023-08-24T04:51:56;9.37;;;8.47;;
11313;SDS011;5712;48.858;9.206;2023-08-24T04:54:23;9.40;;;8.50;;
11313;SDS011;5712;48.858;9.206;2023-08-24T04:56:50;9.77;;;8.87;;
11313;SDS011;5712;48.858;9.206;2023-08-24T04:59:16;9.60;;;8.70;;
11313;SDS011;5712;48.858;9.206;2023-08-24T05:01:43;10.37;;;9.33;;
11313;SDS011;5712;48.858;9.206;2023-08-24T05:04:09;10.43;;;9.33;;
11313;SDS011;5712;48.858;9.206;2023-08-24T05:06:36;11.10;;;9.93;;
11313;SDS011;5712;48.858;9.206;2023-08-24T05:09:02;9.97;;;9.00;;
11313;SDS011;5712;48.858;9.206;2023-08-24T05:11:30;10.00;;;8.63;;
11313;SDS011;5712;48.858;9.206;2023-08-24T05:13:57;11.77;;;9.33;;
11313;SDS011;5712;48.858;9.206;2023-08-24T05:16:23;10.63;;;8.63;;
11313;SDS011;5712;48.858;9.206;2023-08-24T05:18:50;9.93;;;8.93;;
11313;SDS011;5712;48.858;9.206;2023-08-24T05:21:16;9.80;;;8.83;;
11313;SDS011;5712;48.858;9.206;2023-08-24T05:23:43;10.17;;;9.17;;
11313;SDS011;5712;48.858;9.206;2023-08-24T05:26:09;9.40;;;8.50;;
11313;SDS011;5712;48.858;9.206;2023-08-24T05:28:37;10.43;;;9.33;;
11313;SDS011;5712;48.858;9.206;2023-08-24T05:31:04;9.73;;;8.77;;
11313;SDS011;5712;48.858;9.206;2023-08-24T05:33:30;10.70;;;9.47;;
11313;SDS011;5712;48.858;9.206;2023-08-24T05:35:58;11.73;;;9.47;;
11313;SDS011;5712;48.858;9.206;2023-08-24T05:38:24;10.40;;;9.13;;
11313;SDS011;5712;48.858;9.206;2023-08-24T05:40:51;9.87;;;8.80;;
11313;SDS011;5712;48.858;9.206;2023-08-24T05:43:18;9.23;;;8.33;;
11313;SDS011;5712;48.858;9.206;2023-08-24T05:45:46;11.17;;;10.03;;
11313;SDS011;5712;48.858;9.206;2023-08-24T05:48:14;10.57;;;9.43;;
11313;SDS011;5712;48.858;9.206;2023-08-24T05:50:44;9.40;;;8.40;;
11313;SDS011;5712;48.858;9.206;2023-08-24T05:53:11;10.70;;;9.23;;
11313;SDS011;5712;48.858;9.206;2023-08-24T05:55:38;11.43;;;9.10;;
11313;SDS011;5712;48.858;9.206;2023-08-24T05:58:04;9.70;;;8.70;;
11313;SDS011;5712;48.858;9.206;2023-08-24T06:00:31;9.00;;;8.10;;
11313;SDS011;5712;48.858;9.206;2023-08-24T06:02:59;8.63;;;7.83;;
11313;SDS011;5712;48.858;9.206;2023-08-24T06:05:25;9.87;;;8.50;;
11313;SDS011;5712;48.858;9.206;2023-08-24T06:07:52;8.77;;;7.90;;
11313;SDS011;5712;48.858;9.206;2023-08-24T06:10:19;10.53;;;8.70;;
11313;SDS011;5712;48.858;9.206;2023-08-24T06:12:46;9.80;;;8.90;;
11313;SDS011;5712;48.858;9.206;2023-08-24T06:15:12;10.07;;;8.87;;
11313;SDS011;5712;48.858;9.206;2023-08-24T06:17:39;8.93;;;8.13;;
11313;SDS011;5712;48.858;9.206;2023-08-24T06:20:08;10.10;;;8.57;;
11313;SDS011;5712;48.858;9.206;2023-08-24T06:22:36;8.60;;;7.70;;
11313;SDS011;5712;48.858;9.206;2023-08-24T06:25:03;9.00;;;8.10;;
11313;SDS011;5712;48.858;9.206;2023-08-24T06:27:30;8.83;;;7.93;;
11313;SDS011;5712;48.858;9.206;2023-08-24T06:29:56;8.67;;;7.77;;
11313;SDS011;5712;48.858;9.206;2023-08-24T06:32:23;8.70;;;7.57;;
11313;SDS011;5712;48.858;9.206;2023-08-24T06:34:49;8.10;;;7.17;;
11313;SDS011;5712;48.858;9.206;2023-08-24T06:37:17;8.20;;;7.40;;
11313;SDS011;5712;48.858;9.206;2023-08-24T06:39:44;9.80;;;6.90;;
11313;SDS011;5712;48.858;9.206;2023-08-24T06:42:10;7.23;;;6.53;;
11313;SDS011;5712;48.858;9.206;2023-08-24T06:44:37;7.23;;;6.63;;
11313;SDS011;5712;48.858;9.206;2023-08-24T06:47:03;7.03;;;6.33;;
11313;SDS011;5712;48.858;9.206;2023-08-24T06:49:30;9.37;;;6.67;;
11313;SDS011;5712;48.858;9.206;2023-08-24T06:51:56;7.67;;;6.87;;
11313;SDS011;5712;48.858;9.206;2023-08-24T06:54:24;8.17;;;6.60;;
11313;SDS011;5712;48.858;9.206;2023-08-24T06:56:51;8.03;;;6.70;;
11313;SDS011;5712;48.858;9.206;2023-08-24T06:59:17;7.67;;;6.87;;
11313;SDS011;5712;48.858;9.206;2023-08-24T07:01:44;7.83;;;7.00;;
11313;SDS011;5712;48.858;9.206;2023-08-24T07:04:12;7.73;;;6.40;;
11313;SDS011;5712;48.858;9.206;2023-08-24T07:06:38;6.90;;;5.47;;
11313;SDS011;5712;48.858;9.206;2023-08-24T07:09:05;6.20;;;5.60;;
11313;SDS011;5712;48.858;9.206;2023-08-24T07:11:34;6.70;;;6.10;;
11313;SDS011;5712;48.858;9.206;2023-08-24T07:14:00;7.50;;;6.03;;
11313;SDS011;5712;48.858;9.206;2023-08-24T07:16:27;6.83;;;6.23;;
11313;SDS011;5712;48.858;9.206;2023-08-24T07:18:53;6.10;;;5.60;;
11313;SDS011;5712;48.858;9.206;2023-08-24T07:21:20;7.00;;;6.30;;
11313;SDS011;5712;48.858;9.206;2023-08-24T07:23:46;6.77;;;6.13;;
11313;SDS011;5712;48.858;9.206;2023-08-24T07:26:13;6.93;;;6.33;;
11313;SDS011;5712;48.858;9.206;2023-08-24T07:28:41;6.77;;;6.10;;
11313;SDS011;5712;48.858;9.206;2023-08-24T07:31:07;6.60;;;5.90;;
11313;SDS011;5712;48.858;9.206;2023-08-24T07:33:35;7.00;;;5.93;;
11313;SDS011;5712;48.858;9.206;2023-08-24T07:36:02;6.70;;;5.83;;
11313;SDS011;5712;48.858;9.206;2023-08-24T07:38:29;6.60;;;5.93;;
11313;SDS011;5712;48.858;9.206;2023-08-24T07:40:56;5.97;;;5.47;;
11313;SDS011;5712;48.858;9.206;2023-08-24T07:43:22;6.20;;;5.63;;
11313;SDS011;5712;48.858;9.206;2023-08-24T07:45:50;6.27;;;5.67;;
11313;SDS011;5712;48.858;9.206;2023-08-24T07:48:17;6.23;;;5.57;;
11313;SDS011;5712;48.858;9.206;2023-08-24T07:50:43;6.13;;;5.53;;
11313;SDS011;5712;48.858;9.206;2023-08-24T07:53:10;6.30;;;5.70;;
11313;SDS011;5712;48.858;9.206;2023-08-24T07:55:37;5.80;;;5.20;;
11313;SDS011;5712;48.858;9.206;2023-08-24T07:58:03;6.73;;;5.27;;
11313;SDS011;5712;48.858;9.206;2023-08-24T08:00:29;5.50;;;5.00;;
11313;SDS011;5712;48.858;9.206;2023-08-24T08:02:58;5.60;;;5.10;;
11313;SDS011;5712;48.858;9.206;2023-08-24T08:05:25;7.00;;;5.50;;
11313;SDS011;5712;48.858;9.206;2023-08-24T08:07:51;6.13;;;5.00;;
11313;SDS011;5712;48.858;9.206;2023-08-24T08:10:18;5.30;;;4.80;;
11313;SDS011;5712;48.858;9.206;2023-08-24T08:12:46;6.90;;;5.57;;
11313;SDS011;5712;48.858;9.206;2023-08-24T08:15:13;6.53;;;4.93;;
11313;SDS011;5712;48.858;9.206;2023-08-24T08:17:40;5.27;;;4.83;;
11313;SDS011;5712;48.858;9.206;2023-08-24T08:20:08;5.50;;;5.00;;
11313;SDS011;5712;48.858;9.206;2023-08-24T08:22:36;5.40;;;4.87;;
11313;SDS011;5712;48.858;9.206;2023-08-24T08:25:04;5.90;;;4.97;;
11313;SDS011;5712;48.858;9.206;2023-08-24T08:27:31;5.23;;;4.77;;
11313;SDS011;5712;48.858;9.206;2023-08-24T08:29:58;6.00;;;4.90;;
11313;SDS011;5712;48.858;9.206;2023-08-24T08:32:25;5.50;;;5.00;;
11313;SDS011;5712;48.858;9.206;2023-08-24T08:34:52;5.57;;;5.07;;
11313;SDS011;5712;48.858;9.206;2023-08-24T08:37:20;6.27;;;4.60;;
11313;SDS011;5712;48.858;9.206;2023-08-24T08:39:47;5.20;;;4.70;;
11313;SDS011;5712;48.858;9.206;2023-08-24T08:42:13;5.47;;;4.97;;
11313;SDS011;5712;48.858;9.206;2023-08-24T08:44:40;5.30;;;4.80;;
11313;SDS011;5712;48.858;9.206;2023-08-24T08:47:08;5.83;;;4.97;;
11313;SDS011;5712;48.858;9.206;2023-08-24T08:49:36;6.35;;;4.75;;
11313;SDS011;5712;48.858;9.206;2023-08-24T08:52:05;6.47;;;4.82;;
11313;SDS011;5712;48.858;9.206;2023-08-24T08:54:33;6.50;;;5.30;;
11313;SDS011;5712;48.858;9.206;2023-08-24T08:56:59;6.30;;;4.77;;
11313;SDS011;5712;48.858;9.206;2023-08-24T08:59:27;5.47;;;4.97;;
11313;SDS011;5712;48.858;9.206;2023-08-24T09:01:55;5.45;;;4.63;;
11313;SDS011;5712;48.858;9.206;2023-08-24T09:04:22;5.30;;;4.80;;
11313;SDS011;5712;48.858;9.206;2023-08-24T09:06:50;5.70;;;5.20;;
11313;SDS011;5712;48.858;9.206;2023-08-24T09:09:17;5.05;;;4.60;;
11313;SDS011;5712;48.858;9.206;2023-08-24T09:11:46;5.40;;;4.68;;
11313;SDS011;5712;48.858;9.206;2023-08-24T09:14:13;5.07;;;4.55;;
11313;SDS011;5712;48.858;9.206;2023-08-24T09:16:40;5.90;;;5.30;;
11313;SDS011;5712;48.858;9.206;2023-08-24T09:19:10;7.45;;;5.10;;
11313;SDS011;5712;48.858;9.206;2023-08-24T09:21:38;7.10;;;5.18;;
11313;SDS011;5712;48.858;9.206;2023-08-24T09:24:06;7.03;;;4.93;;
11313;SDS011;5712;48.858;9.206;2023-08-24T09:26:34;6.30;;;5.50;;
11313;SDS011;5712;48.858;9.206;2023-08-24T09:29:12;5.50;;;4.65;;
11313;SDS011;5712;48.858;9.206;2023-08-24T09:31:39;5.60;;;5.10;;
11313;SDS011;5712;48.858;9.206;2023-08-24T09:34:09;5.18;;;4.70;;
11313;SDS011;5712;48.858;9.206;2023-08-24T09:36:36;5.68;;;5.18;;
11313;SDS011;5712;48.858;9.206;2023-08-24T09:39:03;5.28;;;4.70;;
11313;SDS011;5712;48.858;9.206;2023-08-24T09:41:36;5.38;;;4.88;;
11313;SDS011;5712;48.858;9.206;2023-08-24T09:44:04;5.50;;;5.03;;
11313;SDS011;5712;48.858;9.206;2023-08-24T09:46:32;5.45;;;4.90;;
11313;SDS011;5712;48.858;9.206;2023-08-24T09:48:58;6.65;;;5.63;;
11313;SDS011;5712;48.858;9.206;2023-08-24T09:51:26;5.47;;;4.97;;
11313;SDS011;5712;48.858;9.206;2023-08-24T09:53:55;5.43;;;4.93;;
11313;SDS011;5712;48.858;9.206;2023-08-24T09:56:24;5.55;;;5.03;;
11313;SDS011;5712;48.858;9.206;2023-08-24T09:58:53;6.88;;;4.93;;
11313;SDS011;5712;48.858;9.206;2023-08-24T10:01:20;5.72;;;5.15;;
11313;SDS011;5712;48.858;9.206;2023-08-24T10:03:51;5.38;;;4.88;;
11313;SDS011;5712;48.858;9.206;2023-08-24T10:06:19;5.25;;;4.80;;
11313;SDS011;5712;48.858;9.206;2023-08-24T10:08:47;6.05;;;4.68;;
11313;SDS011;5712;48.858;9.206;2023-08-24T10:11:21;5.63;;;4.72;;
11313;SDS011;5712;48.858;9.206;2023-08-24T10:13:53;5.47;;;4.90;;
11313;SDS011;5712;48.858;9.206;2023-08-24T10:16:25;6.43;;;5.30;;
11313;SDS011;5712;48.858;9.206;2023-08-24T10:18:56;5.38;;;4.88;;
11313;SDS011;5712;48.858;9.206;2023-08-24T10:21:23;5.60;;;5.07;;
11313;SDS011;5712;48.858;9.206;2023-08-24T10:23:51;6.20;;;5.63;;
11313;SDS011;5712;48.858;9.206;2023-08-24T10:26:19;5.88;;;5.00;;
11313;SDS011;5712;48.858;9.206;2023-08-24T10:28:46;6.63;;;5.47;;
11313;SDS011;5712;48.858;9.206;2023-08-24T10:31:15;6.68;;;5.53;;
11313;SDS011;5712;48.858;9.206;2023-08-24T10:33:42;6.22;;;5.10;;
11313;SDS011;5712;48.858;9.206;2023-08-24T10:36:12;7.20;;;5.57;;
11313;SDS011;5712;48.858;9.206;2023-08-24T10:38:40;6.40;;;5.80;;
11313;SDS011;5712;48.858;9.206;2023-08-24T10:41:07;6.05;;;5.55;;
11313;SDS011;5712;48.858;9.206;2023-08-24T10:43:35;5.82;;;5.32;;
11313;SDS011;5712;48.858;9.206;2023-08-24T10:46:02;6.35;;;5.75;;
11313;SDS011;5712;48.858;9.206;2023-08-24T10:48:30;6.32;;;5.75;;
11313;SDS011;5712;48.858;9.206;2023-08-24T10:51:19;6.25;;;5.65;;
11313;SDS011;5712;48.858;9.206;2023-08-24T10:53:47;7.70;;;5.63;;
11313;SDS011;5712;48.858;9.206;2023-08-24T10:56:18;6.32;;;5.72;;
11313;SDS011;5712;48.858;9.206;2023-08-24T10:58:45;6.88;;;5.50;;
11313;SDS011;5712;48.858;9.206;2023-08-24T11:01:15;5.90;;;5.40;;
11313;SDS011;5712;48.858;9.206;2023-08-24T11:03:46;6.28;;;5.75;;
11313;SDS011;5712;48.858;9.206;2023-08-24T11:06:19;5.60;;;5.10;;
11313;SDS011;5712;48.858;9.206;2023-08-24T11:08:47;6.28;;;5.65;;
11313;SDS011;5712;48.858;9.206;2023-08-24T11:11:20;6.53;;;5.35;;
11313;SDS011;5712;48.858;9.206;2023-08-24T11:16:42;6.28;;;5.72;;
11313;SDS011;5712;48.858;9.206;2023-08-24T11:19:10;5.78;;;5.28;;
11313;SDS011;5712;48.858;9.206;2023-08-24T11:21:39;6.10;;;5.50;;
11313;SDS011;5712;48.858;9.206;2023-08-24T11:24:06;6.80;;;5.90;;
11313;SDS011;5712;48.858;9.206;2023-08-24T11:26:34;8.05;;;5.65;;
11313;SDS011;5712;48.858;9.206;2023-08-24T11:29:05;6.03;;;5.53;;
11313;SDS011;5712;48.858;9.206;2023-08-24T11:31:32;6.55;;;5.95;;
11313;SDS011;5712;48.858;9.206;2023-08-24T11:33:59;6.50;;;5.90;;
11313;SDS011;5712;48.858;9.206;2023-08-24T11:36:26;6.68;;;6.00;;
11313;SDS011;5712;48.858;9.206;2023-08-24T11:38:55;6.68;;;6.07;;
11313;SDS011;5712;48.858;9.206;2023-08-24T11:41:23;6.38;;;5.78;;
11313;SDS011;5712;48.858;9.206;2023-08-24T11:43:53;6.35;;;5.65;;
11313;SDS011;5712;48.858;9.206;2023-08-24T11:46:25;6.28;;;5.68;;
11313;SDS011;5712;48.858;9.206;2023-08-24T11:48:55;6.85;;;6.18;;
11313;SDS011;5712;48.858;9.206;2023-08-24T11:51:21;7.00;;;6.40;;
11313;SDS011;5712;48.858;9.206;2023-08-24T11:53:48;7.20;;;5.72;;
11313;SDS011;5712;48.858;9.206;2023-08-24T11:56:17;7.13;;;6.30;;
11313;SDS011;5712;48.858;9.206;2023-08-24T11:58:43;6.60;;;5.88;;
11313;SDS011;5712;48.858;9.206;2023-08-24T12:01:15;7.22;;;5.80;;
11313;SDS011;5712;48.858;9.206;2023-08-24T12:03:42;6.68;;;6.07;;
11313;SDS011;5712;48.858;9.206;2023-08-24T12:06:12;6.85;;;6.30;;
11313;SDS011;5712;48.858;9.206;2023-08-24T12:08:39;7.00;;;6.40;;
11313;SDS011;5712;48.858;9.206;2023-08-24T12:11:12;6.82;;;6.13;;
11313;SDS011;5712;48.858;9.206;2023-08-24T12:13:43;6.75;;;6.18;;
11313;SDS011;5712;48.858;9.206;2023-08-24T12:16:12;6.88;;;6.28;;
11313;SDS011;5712;48.858;9.206;2023-08-24T12:18:49;8.52;;;5.80;;
11313;SDS011;5712;48.858;9.206;2023-08-24T12:21:18;6.63;;;5.97;;
11313;SDS011;5712;48.858;9.206;2023-08-24T12:23:54;6.85;;;6.18;;
11313;SDS011;5712;48.858;9.206;2023-08-24T12:26:21;8.20;;;6.15;;
11313;SDS011;5712;48.858;9.206;2023-08-24T12:28:52;6.63;;;6.13;;
11313;SDS011;5712;48.858;9.206;2023-08-24T12:31:19;6.95;;;5.75;;
11313;SDS011;5712;48.858;9.206;2023-08-24T12:33:56;6.43;;;5.82;;
11313;SDS011;5712;48.858;9.206;2023-08-24T12:36:25;6.50;;;5.90;;
11313;SDS011;5712;48.858;9.206;2023-08-24T12:38:51;6.28;;;5.60;;
11313;SDS011;5712;48.858;9.206;2023-08-24T12:41:18;6.85;;;6.15;;
11313;SDS011;5712;48.858;9.206;2023-08-24T12:43:44;6.50;;;5.90;;
11313;SDS011;5712;48.858;9.206;2023-08-24T12:46:12;6.53;;;5.43;;
11313;SDS011;5712;48.858;9.206;2023-08-24T12:48:38;6.10;;;5.57;;
11313;SDS011;5712;48.858;9.206;2023-08-24T12:51:05;6.35;;;5.75;;
11313;SDS011;5712;48.858;9.206;2023-08-24T12:53:31;6.72;;;6.13;;
11313;SDS011;5712;48.858;9.206;2023-08-24T12:55:58;6.28;;;5.68;;
11313;SDS011;5712;48.858;9.206;2023-08-24T12:58:24;6.43;;;5.82;;
11313;SDS011;5712;48.858;9.206;2023-08-24T13:00:51;6.72;;;6.13;;
11313;SDS011;5712;48.858;9.206;2023-08-24T13:03:19;6.32;;;5.78;;
11313;SDS011;5712;48.858;9.206;2023-08-24T13:05:45;6.03;;;5.45;;
11313;SDS011;5712;48.858;9.206;2023-08-24T13:08:12;6.28;;;5.68;;
11313;SDS011;5712;48.858;9.206;2023-08-24T13:10:39;6.97;;;6.35;;
11313;SDS011;5712;48.858;9.206;2023-08-24T13:13:06;6.10;;;5.57;;
11313;SDS011;5712;48.858;9.206;2023-08-24T13:15:33;6.65;;;6.00;;
11313;SDS011;5712;48.858;9.206;2023-08-24T13:17:59;6.28;;;5.70;;
11313;SDS011;5712;48.858;9.206;2023-08-24T13:20:27;6.30;;;5.70;;
11313;SDS011;5712;48.858;9.206;2023-08-24T13:22:54;7.00;;;5.90;;
11313;SDS011;5712;48.858;9.206;2023-08-24T13:25:20;10.18;;;5.82;;
11313;SDS011;5712;48.858;9.206;2023-08-24T13:27:47;6.30;;;5.70;;
11313;SDS011;5712;48.858;9.206;2023-08-24T13:30:13;7.13;;;5.70;;
11313;SDS011;5712;48.858;9.206;2023-08-24T13:32:40;6.50;;;5.93;;
11313;SDS011;5712;48.858;9.206;2023-08-24T13:35:07;7.07;;;5.55;;
11313;SDS011;5712;48.858;9.206;2023-08-24T13:37:35;6.43;;;5.55;;
11313;SDS011;5712;48.858;9.206;2023-08-24T13:40:02;6.57;;;5.25;;
11313;SDS011;5712;48.858;9.206;2023-08-24T13:42:29;6.13;;;5.53;;
11313;SDS011;5712;48.858;9.206;2023-08-24T13:44:56;6.10;;;5.43;;
11313;SDS011;5712;48.858;9.206;2023-08-24T13:47:22;6.93;;;5.53;;
11313;SDS011;5712;48.858;9.206;2023-08-24T13:49:49;6.22;;;5.10;;
11313;SDS011;5712;48.858;9.206;2023-08-24T13:52:15;5.22;;;4.72;;
11313;SDS011;5712;48.858;9.206;2023-08-24T13:54:45;5.60;;;5.10;;
11313;SDS011;5712;48.858;9.206;2023-08-24T13:57:12;9.02;;;5.57;;
11313;SDS011;5712;48.858;9.206;2023-08-24T13:59:39;6.47;;;5.18;;
11313;SDS011;5712;48.858;9.206;2023-08-24T14:02:05;5.50;;;5.00;;
11313;SDS011;5712;48.858;9.206;2023-08-24T14:04:33;5.25;;;4.85;;
11313;SDS011;5712;48.858;9.206;2023-08-24T14:06:59;7.35;;;5.20;;
11313;SDS011;5712;48.858;9.206;2023-08-24T14:09:26;6.65;;;6.03;;
11313;SDS011;5712;48.858;9.206;2023-08-24T14:11:54;6.38;;;5.32;;
11313;SDS011;5712;48.858;9.206;2023-08-24T14:14:21;6.70;;;5.30;;
11313;SDS011;5712;48.858;9.206;2023-08-24T14:16:49;6.22;;;5.38;;
11313;SDS011;5712;48.858;9.206;2023-08-24T14:19:20;7.10;;;5.70;;
11313;SDS011;5712;48.858;9.206;2023-08-24T14:21:46;6.03;;;5.43;;
11313;SDS011;5712;48.858;9.206;2023-08-24T14:24:13;5.85;;;5.25;;
11313;SDS011;5712;48.858;9.206;2023-08-24T14:26:39;6.72;;;5.30;;
11313;SDS011;5712;48.858;9.206;2023-08-24T14:29:11;6.38;;;5.07;;
11313;SDS011;5712;48.858;9.206;2023-08-24T14:31:38;6.55;;;4.82;;
11313;SDS011;5712;48.858;9.206;2023-08-24T14:34:05;6.93;;;5.28;;
11313;SDS011;5712;48.858;9.206;2023-08-24T14:36:32;6.60;;;4.63;;
11313;SDS011;5712;48.858;9.206;2023-08-24T14:38:58;7.50;;;4.88;;
11313;SDS011;5712;48.858;9.206;2023-08-24T14:41:25;5.93;;;4.60;;
11313;SDS011;5712;48.858;9.206;2023-08-24T14:43:55;6.03;;;4.93;;
11313;SDS011;5712;48.858;9.206;2023-08-24T14:46:23;6.20;;;5.10;;
11313;SDS011;5712;48.858;9.206;2023-08-24T14:48:49;8.20;;;5.35;;
11313;SDS011;5712;48.858;9.206;2023-08-24T14:51:16;7.45;;;4.97;;
11313;SDS011;5712;48.858;9.206;2023-08-24T14:53:42;5.95;;;5.05;;
11313;SDS011;5712;48.858;9.206;2023-08-24T14:56:09;6.97;;;4.95;;
11313;SDS011;5712;48.858;9.206;2023-08-24T14:58:36;10.57;;;5.15;;
11313;SDS011;5712;48.858;9.206;2023-08-24T15:01:02;8.05;;;5.57;;
11313;SDS011;5712;48.858;9.206;2023-08-24T15:03:31;17.58;;;5.72;;
11313;SDS011;5712;48.858;9.206;2023-08-24T15:05:58;11.15;;;5.07;;